Needles Airport
KEED : now visible

Airfield :











YOU CAN JOIN US ON...

 
LOGIN :

Register | Disclaimer

   EN    FR    IT 

 









Legend :    VFR   Marginal VFR   IFR   Intensive IFR   Very Intensive IFR
Visi :
Ceiling :
>= 8 km
>= 3000ft
5 to 8 km
1000 to 3000 ft
1500m to 5 km
500 to 1000 ft
800 to 1500m
200 to 500 ft
< 800m
< 200 ft
Symbols :   Thunderstorms  Fog  Heavy snow  Heavy precipitations  Wind > 20 kt






- Airport Elevation : 983 ft


KEED - Needles

CURRENT METAR :
  • 241856Z AUTO 00000KT 10SM CLR 34/M10 A2982 RMK AO2 SLP064 T03441100

EXPIRED METARs :
  • 241756Z AUTO 34005KT 10SM CLR 34/M10 A2983 RMK AO2 SLP067 T03391100 10339 20206 58005
  • 241656Z AUTO 36012KT 10SM CLR 32/M09 A2984 RMK AO2 SLP072 T03221094

TAF KEED
Valid from the 24 at 18:00 until the 25 at 18:00 UTC


241739Z 2418/2518 36010KT P6SM SKC
FM250400 VRB06KT P6SM SKC
KZLA FIR / North America



MET'MAP, your aeronautical weather chart ! - Copyright ORBIFLY December 2007 - Disclaimer

ORBIFLY MET'MAP TEAM :

Programming & Development : Alexandra Zaïnal
Original concept : Baudouin d'Aumeries
Technical & hardware support : Manuel Goepfert
Assistance : Marc-Olivier Méhu

Contact : metmap@orbifly.com




SOURCES & CREDITS :

   NOAA       Earth
Advisory